Santa Clara de Saguier, Argentina
Current Conditions -  °F | °C
As of 9:00 AM on Sunday 21 Dec 2014 (Local Time) from SAAR Reporting Station
Clear Clear  
Wind Chill: 17°   Ceiling: Unl
Heat Index: 17°   Visibility: 6mi
Dew Point:   Wind: 12mph
Humidity: 55%   Direction: 140°SE
Pressure: 29.8"   Gusts: NA
Location:  31.35°S, 61.83°W
Report Text: SAAR 211200Z 14010KT CAVOK 17/08 Q1009
Loading
Personal Weather Stations






























Interactive Weather Map New forecast layout! Learn more

10-Day Weather Forecast

Advertisements
Track Severe Weather on mobile